createdAt,value
2023-05-02T04:18:11.765Z,100828.25
2023-05-02T04:19:13.970Z,100834.50
2023-05-02T04:20:15.999Z,100839.75
2023-05-02T04:21:22.576Z,100838.31
2023-05-02T04:22:24.831Z,100839.13
2023-05-02T04:23:31.612Z,100842.59
2023-05-02T04:24:36.332Z,100832.09
2023-05-02T04:25:38.311Z,100839.25
2023-05-02T04:26:41.250Z,100834.22
2023-05-02T04:27:48.623Z,100838.72
2023-05-02T04:28:54.639Z,100840.06
2023-05-02T04:29:56.695Z,100839.81
2023-05-02T04:30:58.747Z,100847.56
2023-05-02T04:32:02.008Z,100844.13
2023-05-02T04:33:06.839Z,100845.09
2023-05-02T04:38:49.786Z,100855.47
2023-05-02T04:39:54.194Z,100861.09
2023-05-02T04:41:00.683Z,100854.72
2023-05-02T04:42:16.742Z,100858.28
2023-05-02T04:43:30.951Z,100860.75
2023-05-02T04:44:36.851Z,100855.47
2023-05-02T04:45:39.358Z,100869.09
2023-05-02T04:46:47.938Z,100869.81
2023-05-02T04:47:50.621Z,100870.47
2023-05-02T04:48:52.977Z,100865.47
2023-05-02T04:49:59.388Z,100873.06
2023-05-02T04:51:03.351Z,100874.16
2023-05-02T04:52:06.574Z,100869.19
2023-05-02T04:53:10.768Z,100871.06
2023-05-02T04:54:13.327Z,100869.63
2023-05-02T04:55:17.440Z,100870.13
2023-05-02T04:56:20.192Z,100875.44
2023-05-02T04:57:23.441Z,100875.47
2023-05-02T04:58:30.139Z,100866.69
2023-05-02T04:59:36.908Z,100875.00
2023-05-02T05:00:38.998Z,100869.03
2023-05-02T05:01:41.279Z,100870.84
2023-05-02T05:02:44.664Z,100875.75
2023-05-02T05:03:49.083Z,100878.63
2023-05-02T05:04:52.812Z,100877.00
2023-05-02T05:05:55.544Z,100873.72
2023-05-02T05:06:58.908Z,100874.78
2023-05-02T05:08:03.504Z,100876.84
2023-05-02T05:09:12.385Z,100883.00
2023-05-02T05:10:14.457Z,100879.16
2023-05-02T05:11:22.047Z,100871.06
2023-05-02T05:12:24.272Z,100881.44
2023-05-02T05:13:30.877Z,100873.53
2023-05-02T05:14:35.568Z,100878.59
2023-05-02T05:15:38.011Z,100880.00
2023-05-02T05:16:42.529Z,100883.94
2023-05-02T05:17:45.686Z,100876.38
2023-05-02T05:18:49.615Z,100881.16
2023-05-02T05:19:51.749Z,100890.88
2023-05-02T05:20:54.296Z,100884.78
2023-05-02T05:21:56.322Z,100885.97
2023-05-02T05:23:01.210Z,100882.34
2023-05-02T05:24:03.332Z,100878.94
2023-05-02T05:25:05.917Z,100881.16
2023-05-02T05:26:15.555Z,100883.06
2023-05-02T05:27:21.622Z,100878.16
2023-05-02T05:28:24.690Z,100885.09
2023-05-02T05:29:26.639Z,100883.50
2023-05-02T05:30:31.104Z,100890.56
2023-05-02T05:31:34.696Z,100884.78
2023-05-02T05:32:38.131Z,100877.59
2023-05-02T05:33:40.734Z,100886.31
2023-05-02T05:34:44.432Z,100886.66
2023-05-02T05:35:46.417Z,100877.47
2023-05-02T05:36:50.976Z,100881.41
2023-05-02T05:37:57.055Z,100882.69
2023-05-02T05:38:59.211Z,100890.88
2023-05-02T05:40:02.357Z,100888.81
2023-05-02T05:41:05.690Z,100884.31
2023-05-02T05:42:09.830Z,100888.97
2023-05-02T05:43:13.013Z,100885.94
2023-05-02T05:44:15.055Z,100879.22
2023-05-02T05:45:19.567Z,100880.03
2023-05-02T05:46:21.738Z,100879.25
2023-05-02T05:47:23.907Z,100883.06
2023-05-02T05:48:27.970Z,100879.91
2023-05-02T05:49:30.447Z,100883.47
2023-05-02T05:50:32.339Z,100873.38
2023-05-02T05:51:35.356Z,100879.50
2023-05-02T05:52:37.596Z,100871.28
2023-05-02T05:53:40.791Z,100877.34
2023-05-02T05:54:45.310Z,100877.22
2023-05-02T05:55:47.458Z,100881.19
2023-05-02T05:56:49.555Z,100882.13
2023-05-02T05:57:54.296Z,100883.97
2023-05-02T05:58:56.666Z,100883.41
2023-05-02T05:59:58.731Z,100879.38
2023-05-02T06:01:01.375Z,100877.16
2023-05-02T06:02:29.776Z,100879.25
2023-05-02T06:03:35.686Z,100885.81
2023-05-02T06:04:37.738Z,100884.50
2023-05-02T06:05:39.979Z,100881.19
2023-05-02T06:06:42.868Z,100882.38
2023-05-02T06:07:45.237Z,100884.41
2023-05-02T06:08:47.222Z,100874.84
2023-05-02T06:09:49.995Z,100878.16
2023-05-02T06:10:56.327Z,100881.25
2023-05-02T06:11:59.131Z,100882.00
2023-05-02T06:13:03.035Z,100876.41
2023-05-02T06:14:09.136Z,100874.03
2023-05-02T06:15:11.659Z,100880.38
2023-05-02T06:16:14.674Z,100880.34
2023-05-02T06:17:16.618Z,100883.00
2023-05-02T06:18:18.522Z,100881.81
2023-05-02T06:19:21.886Z,100888.53
2023-05-02T06:20:23.889Z,100889.44
2023-05-02T06:21:26.731Z,100883.84
2023-05-02T06:22:28.605Z,100881.88
2023-05-02T06:23:34.526Z,100887.72
2023-05-02T06:24:37.877Z,100879.63
2023-05-02T06:25:39.680Z,100875.75
2023-05-02T06:26:41.608Z,100882.69
2023-05-02T06:27:43.585Z,100880.66
2023-05-02T06:28:45.785Z,100874.66
2023-05-02T06:29:47.678Z,100868.91
2023-05-02T06:30:59.935Z,100884.56
2023-05-02T06:32:01.932Z,100885.06
2023-05-02T06:33:06.073Z,100881.22
2023-05-02T06:34:08.019Z,100883.59
2023-05-02T06:35:11.418Z,100887.31
2023-05-02T06:36:15.467Z,100886.78
2023-05-02T06:37:17.395Z,100892.50
2023-05-02T06:38:20.058Z,100888.84
2023-05-02T06:39:22.167Z,100887.50
2023-05-02T06:40:23.944Z,100879.56
2023-05-02T06:41:25.788Z,100886.81
2023-05-02T06:42:27.654Z,100891.84
2023-05-02T06:43:29.716Z,100890.91
2023-05-02T06:44:31.509Z,100886.31
2023-05-02T06:45:33.404Z,100893.09
2023-05-02T06:46:35.667Z,100886.47
2023-05-02T06:47:37.685Z,100889.94
2023-05-02T06:48:40.798Z,100888.06
2023-05-02T06:49:42.723Z,100891.50
2023-05-02T06:50:44.520Z,100881.63
2023-05-02T06:51:46.368Z,100895.00
2023-05-02T06:52:48.207Z,100886.56
2023-05-02T06:53:50.138Z,100890.56
2023-05-02T06:54:51.957Z,100880.50
2023-05-02T06:55:53.824Z,100887.78
2023-05-02T06:56:55.744Z,100889.22
2023-05-02T06:57:57.900Z,100886.75
2023-05-02T06:58:59.869Z,100886.81
2023-05-02T07:00:02.343Z,100887.47
2023-05-02T07:01:04.917Z,100884.28
2023-05-02T07:02:07.101Z,100889.72
2023-05-02T07:03:11.460Z,100898.31
2023-05-02T07:04:13.673Z,100893.88
2023-05-02T07:05:16.704Z,100887.56
2023-05-02T07:06:19.044Z,100888.91
2023-05-02T07:07:22.126Z,100893.13
2023-05-02T07:08:24.396Z,100881.00
2023-05-02T07:09:26.367Z,100887.44
2023-05-02T07:10:28.322Z,100887.09
2023-05-02T07:11:30.124Z,100883.13
2023-05-02T07:12:31.966Z,100880.63
2023-05-02T07:13:33.873Z,100881.78
2023-05-02T07:14:35.725Z,100888.34
2023-05-02T07:15:37.542Z,100880.09
2023-05-02T07:16:39.428Z,100876.59
2023-05-02T07:17:41.886Z,100880.38
2023-05-02T07:18:45.853Z,100883.03
2023-05-02T07:19:47.794Z,100881.22
2023-05-02T07:20:50.172Z,100886.81
2023-05-02T07:21:52.008Z,100878.75
2023-05-02T07:22:54.044Z,100881.66
2023-05-02T07:23:57.684Z,100881.88
2023-05-02T07:25:02.490Z,100878.34
2023-05-02T07:26:06.418Z,100878.50
2023-05-02T07:27:14.988Z,100872.66
2023-05-02T07:28:16.861Z,100880.75
2023-05-02T07:29:18.792Z,100875.91
2023-05-02T07:30:20.875Z,100879.38
2023-05-02T07:31:22.805Z,100888.38
2023-05-02T07:32:27.571Z,100879.13
2023-05-02T07:33:29.850Z,100881.78
2023-05-02T07:34:31.814Z,100885.41
2023-05-02T07:35:33.640Z,100876.59
2023-05-02T07:36:35.490Z,100892.16
2023-05-02T07:37:37.685Z,100888.38
2023-05-02T07:38:40.915Z,100886.97
2023-05-02T07:39:42.822Z,100873.34
2023-05-02T07:40:46.514Z,100886.63
2023-05-02T07:41:52.120Z,100876.03
2023-05-02T07:42:54.229Z,100878.84
2023-05-02T07:43:57.706Z,100882.31
2023-05-02T07:45:00.235Z,100876.25
2023-05-02T07:46:06.666Z,100879.31
2023-05-02T07:47:09.178Z,100879.25
2023-05-02T07:48:11.177Z,100879.72
2023-05-02T07:49:13.818Z,100880.13
2023-05-02T07:50:15.947Z,100870.13
2023-05-02T07:51:20.427Z,100874.38
2023-05-02T07:52:22.458Z,100875.00
2023-05-02T07:53:24.664Z,100873.50
2023-05-02T07:54:26.591Z,100871.50
2023-05-02T07:55:29.160Z,100869.47
2023-05-02T07:56:31.057Z,100880.22
2023-05-02T07:57:32.911Z,100867.97
2023-05-02T07:58:36.445Z,100862.75
2023-05-02T07:59:38.990Z,100870.09
2023-05-02T08:00:41.134Z,100871.84
2023-05-02T08:01:44.325Z,100872.72
2023-05-02T08:02:46.455Z,100876.81
2023-05-02T08:03:50.043Z,100866.72
2023-05-02T08:04:52.207Z,100858.25
2023-05-02T08:05:55.148Z,100862.53
2023-05-02T08:06:57.127Z,100859.41
2023-05-02T08:08:01.314Z,100863.88
2023-05-02T08:09:03.820Z,100865.72
2023-05-02T08:10:06.965Z,100867.81
2023-05-02T08:11:09.015Z,100864.78
2023-05-02T08:12:11.023Z,100858.97
2023-05-02T08:13:15.216Z,100869.03
2023-05-02T08:14:17.033Z,100866.94
2023-05-02T08:15:18.985Z,100864.63
2023-05-02T08:16:21.691Z,100870.97
2023-05-02T08:17:23.784Z,100863.91
2023-05-02T08:18:27.439Z,100856.59
2023-05-02T08:19:29.625Z,100857.56
2023-05-02T08:20:31.519Z,100858.13
2023-05-02T08:21:34.020Z,100857.84
2023-05-02T08:22:35.916Z,100859.91
2023-05-02T08:23:38.554Z,100866.16
2023-05-02T08:24:40.644Z,100856.34
2023-05-02T08:25:42.692Z,100857.00
2023-05-02T08:26:44.718Z,100856.59
2023-05-02T08:27:46.687Z,100862.72
2023-05-02T08:28:48.970Z,100864.25
2023-05-02T08:29:51.136Z,100858.16
2023-05-02T08:30:52.979Z,100861.47
2023-05-02T08:31:55.029Z,100865.28
2023-05-02T08:32:56.980Z,100859.69
2023-05-02T08:33:59.105Z,100864.28
2023-05-02T08:35:01.480Z,100865.69
2023-05-02T08:36:13.372Z,100855.63
2023-05-02T08:37:15.178Z,100859.22
2023-05-02T08:38:20.780Z,100852.81
2023-05-02T08:39:22.943Z,100857.34
2023-05-02T08:40:40.556Z,100854.41
2023-05-02T08:41:43.780Z,100852.88
2023-05-02T08:42:46.093Z,100855.13
2023-05-02T08:43:48.510Z,100857.63
2023-05-02T08:44:51.077Z,100852.16
2023-05-02T08:45:57.530Z,100850.22
2023-05-02T08:47:00.835Z,100849.38
2023-05-02T08:48:07.269Z,100852.44
2023-05-02T08:49:15.783Z,100849.81
2023-05-02T08:50:18.872Z,100846.28
2023-05-02T08:51:23.285Z,100841.34
2023-05-02T08:52:26.759Z,100848.16
2023-05-02T08:53:35.562Z,100845.38
2023-05-02T08:54:38.723Z,100852.41
2023-05-02T08:55:41.889Z,100849.09
2023-05-02T08:56:45.064Z,100854.22
2023-05-02T08:57:47.352Z,100847.06
2023-05-02T08:58:51.474Z,100848.78
2023-05-02T08:59:53.289Z,100849.47
2023-05-02T09:00:57.120Z,100847.00
2023-05-02T09:02:12.666Z,100847.94
2023-05-02T09:03:32.782Z,100844.53
2023-05-02T09:04:41.214Z,100850.25
2023-05-02T09:05:44.510Z,100845.59
2023-05-02T09:06:46.735Z,100851.88
2023-05-02T09:07:50.904Z,100839.28
2023-05-02T09:08:53.211Z,100835.72
2023-05-02T09:09:55.295Z,100850.91
2023-05-02T09:10:58.212Z,100848.78
2023-05-02T09:12:00.200Z,100851.88
2023-05-02T09:13:34.719Z,100849.06
2023-05-02T09:14:36.664Z,100847.25
2023-05-02T09:15:38.959Z,100842.09
2023-05-02T09:16:40.891Z,100840.91
2023-05-02T09:17:44.470Z,100837.59
2023-05-02T09:18:49.798Z,100841.72
2023-05-02T09:20:01.166Z,100842.44
2023-05-02T09:21:09.985Z,100842.00
2023-05-02T09:22:11.799Z,100836.41
2023-05-02T09:23:14.303Z,100838.88
2023-05-02T09:24:21.266Z,100833.59
2023-05-02T09:25:23.313Z,100841.34
2023-05-02T09:26:29.525Z,100832.34
2023-05-02T09:27:56.856Z,100834.47
2023-05-02T09:29:01.309Z,100839.41
2023-05-02T09:30:25.524Z,100839.03
2023-05-02T09:32:45.672Z,100834.94
2023-05-02T09:33:49.874Z,100833.47
2023-05-02T09:35:07.552Z,100828.19
2023-05-02T09:36:14.691Z,100820.75
2023-05-02T09:37:34.772Z,100823.03
2023-05-02T09:38:38.939Z,100814.38
2023-05-02T09:39:40.840Z,100820.28
2023-05-02T09:40:54.941Z,100813.50
2023-05-02T09:41:58.051Z,100817.44
2023-05-02T09:42:59.920Z,100811.56
2023-05-02T09:44:03.033Z,100820.97
2023-05-02T09:45:05.350Z,100814.66
2023-05-02T09:46:09.247Z,100824.16
2023-05-02T09:47:11.274Z,100817.69
2023-05-02T09:48:15.328Z,100821.13
2023-05-02T09:49:21.210Z,100824.34
2023-05-02T09:50:38.829Z,100824.00
2023-05-02T09:51:43.987Z,100818.41
2023-05-02T09:53:02.579Z,100816.59
2023-05-02T09:54:04.702Z,100808.53
2023-05-02T09:55:22.579Z,100815.44
2023-05-02T09:56:25.577Z,100809.34
2023-05-02T09:57:41.556Z,100813.41
2023-05-02T09:58:45.159Z,100811.91
2023-05-02T09:59:57.786Z,100810.38
2023-05-02T10:01:00.023Z,100811.34
2023-05-02T10:02:04.103Z,100801.03
2023-05-02T10:03:09.303Z,100801.84
2023-05-02T10:04:19.188Z,100800.22
2023-05-02T10:05:21.561Z,100801.09
2023-05-02T10:06:24.834Z,100809.22
2023-05-02T10:07:27.260Z,100799.28
2023-05-02T10:11:51.063Z,100795.66
2023-05-02T10:13:45.234Z,100803.59
2023-05-02T10:24:29.385Z,100796.41
2023-05-02T10:37:39.235Z,100794.75
2023-05-02T10:46:39.362Z,100780.88
2023-05-02T10:49:05.468Z,100777.31
2023-05-02T10:56:38.183Z,100765.31
2023-05-02T11:01:46.015Z,100766.97
2023-05-02T11:02:58.199Z,100766.97
2023-05-02T11:09:19.546Z,100762.22
2023-05-02T11:13:07.855Z,100759.78
2023-05-02T18:51:24.671Z,100515.97
2023-05-02T18:52:34.225Z,100514.78
2023-05-02T18:53:42.111Z,100513.56
2023-05-02T18:54:56.284Z,100519.88
2023-05-02T19:05:30.775Z,100505.91
2023-05-02T19:06:58.928Z,100506.72
2023-05-02T19:08:12.702Z,100507.47
2023-05-02T19:09:24.722Z,100501.13
2023-05-02T19:54:01.509Z,100476.06
2023-05-02T19:55:05.455Z,100479.63
2023-05-02T20:29:49.377Z,100457.97
2023-05-02T20:35:15.890Z,100455.06
2023-05-02T20:38:00.767Z,100457.81
2023-05-02T20:39:36.009Z,100445.94
2023-05-02T20:45:09.259Z,100451.34
